sensor_id;sensor_type;location;lat;lon;timestamp;P1;durP1;ratioP1;P2;durP2;ratioP2
16506;SDS011;8366;51.020;7.642;2023-02-13T00:02:00;6.53;;;4.30;;
16506;SDS011;8366;51.020;7.642;2023-02-13T00:04:26;6.27;;;4.37;;
16506;SDS011;8366;51.020;7.642;2023-02-13T00:06:53;6.17;;;4.53;;
16506;SDS011;8366;51.020;7.642;2023-02-13T00:09:19;6.27;;;4.20;;
16506;SDS011;8366;51.020;7.642;2023-02-13T00:11:47;8.97;;;4.63;;
16506;SDS011;8366;51.020;7.642;2023-02-13T00:14:13;7.93;;;4.47;;
16506;SDS011;8366;51.020;7.642;2023-02-13T00:16:40;6.70;;;4.30;;
16506;SDS011;8366;51.020;7.642;2023-02-13T00:19:06;6.47;;;4.50;;
16506;SDS011;8366;51.020;7.642;2023-02-13T00:21:33;6.50;;;4.10;;
16506;SDS011;8366;51.020;7.642;2023-02-13T00:23:59;6.40;;;4.50;;
16506;SDS011;8366;51.020;7.642;2023-02-13T00:26:26;5.97;;;4.03;;
16506;SDS011;8366;51.020;7.642;2023-02-13T00:28:55;6.50;;;3.60;;
16506;SDS011;8366;51.020;7.642;2023-02-13T00:31:22;6.83;;;3.80;;
16506;SDS011;8366;51.020;7.642;2023-02-13T00:33:48;5.00;;;3.73;;
16506;SDS011;8366;51.020;7.642;2023-02-13T00:36:16;6.97;;;4.07;;
16506;SDS011;8366;51.020;7.642;2023-02-13T00:38:43;5.73;;;3.77;;
16506;SDS011;8366;51.020;7.642;2023-02-13T00:41:10;5.63;;;4.00;;
16506;SDS011;8366;51.020;7.642;2023-02-13T00:43:37;5.33;;;3.43;;
16506;SDS011;8366;51.020;7.642;2023-02-13T00:46:05;6.80;;;4.27;;
16506;SDS011;8366;51.020;7.642;2023-02-13T00:48:32;6.17;;;3.80;;
16506;SDS011;8366;51.020;7.642;2023-02-13T00:50:59;5.67;;;3.70;;
16506;SDS011;8366;51.020;7.642;2023-02-13T00:53:26;7.03;;;4.20;;
16506;SDS011;8366;51.020;7.642;2023-02-13T00:55:53;6.13;;;4.17;;
16506;SDS011;8366;51.020;7.642;2023-02-13T00:58:19;6.53;;;4.23;;
16506;SDS011;8366;51.020;7.642;2023-02-13T01:00:47;6.60;;;4.03;;
16506;SDS011;8366;51.020;7.642;2023-02-13T01:03:15;6.90;;;3.87;;
16506;SDS011;8366;51.020;7.642;2023-02-13T01:05:42;7.10;;;4.27;;
16506;SDS011;8366;51.020;7.642;2023-02-13T01:08:09;7.30;;;3.97;;
16506;SDS011;8366;51.020;7.642;2023-02-13T01:10:36;8.20;;;4.20;;
16506;SDS011;8366;51.020;7.642;2023-02-13T01:13:03;7.60;;;4.40;;
16506;SDS011;8366;51.020;7.642;2023-02-13T01:15:29;7.33;;;4.40;;
16506;SDS011;8366;51.020;7.642;2023-02-13T01:17:57;7.30;;;4.40;;
16506;SDS011;8366;51.020;7.642;2023-02-13T01:20:26;6.87;;;4.70;;
16506;SDS011;8366;51.020;7.642;2023-02-13T01:22:53;7.03;;;4.80;;
16506;SDS011;8366;51.020;7.642;2023-02-13T01:25:20;7.80;;;4.40;;
16506;SDS011;8366;51.020;7.642;2023-02-13T01:27:47;8.00;;;4.83;;
16506;SDS011;8366;51.020;7.642;2023-02-13T01:30:14;7.50;;;4.80;;
16506;SDS011;8366;51.020;7.642;2023-02-13T01:32:42;7.63;;;4.80;;
16506;SDS011;8366;51.020;7.642;2023-02-13T01:35:10;7.50;;;4.97;;
16506;SDS011;8366;51.020;7.642;2023-02-13T01:37:38;7.70;;;4.87;;
16506;SDS011;8366;51.020;7.642;2023-02-13T01:40:05;7.93;;;5.30;;
16506;SDS011;8366;51.020;7.642;2023-02-13T01:42:35;7.63;;;4.83;;
16506;SDS011;8366;51.020;7.642;2023-02-13T01:45:03;7.93;;;5.30;;
16506;SDS011;8366;51.020;7.642;2023-02-13T01:47:32;7.60;;;5.10;;
16506;SDS011;8366;51.020;7.642;2023-02-13T01:50:05;8.57;;;5.23;;
16506;SDS011;8366;51.020;7.642;2023-02-13T01:52:34;8.23;;;4.97;;
16506;SDS011;8366;51.020;7.642;2023-02-13T01:55:03;8.30;;;5.17;;
16506;SDS011;8366;51.020;7.642;2023-02-13T01:57:30;8.60;;;5.43;;
16506;SDS011;8366;51.020;7.642;2023-02-13T01:59:58;8.03;;;4.80;;
16506;SDS011;8366;51.020;7.642;2023-02-13T02:02:26;8.50;;;5.40;;
16506;SDS011;8366;51.020;7.642;2023-02-13T02:04:54;8.63;;;5.60;;
16506;SDS011;8366;51.020;7.642;2023-02-13T02:07:22;7.57;;;5.10;;
16506;SDS011;8366;51.020;7.642;2023-02-13T02:09:50;9.37;;;5.70;;
16506;SDS011;8366;51.020;7.642;2023-02-13T02:12:21;9.67;;;5.83;;
16506;SDS011;8366;51.020;7.642;2023-02-13T02:14:51;8.83;;;5.40;;
16506;SDS011;8366;51.020;7.642;2023-02-13T02:17:18;9.03;;;5.50;;
16506;SDS011;8366;51.020;7.642;2023-02-13T02:19:48;8.80;;;5.67;;
16506;SDS011;8366;51.020;7.642;2023-02-13T02:22:31;9.33;;;5.53;;
16506;SDS011;8366;51.020;7.642;2023-02-13T02:25:26;9.30;;;5.60;;
16506;SDS011;8366;51.020;7.642;2023-02-13T02:31:20;9.33;;;5.53;;
16506;SDS011;8366;51.020;7.642;2023-02-13T02:34:14;8.13;;;5.37;;
16506;SDS011;8366;51.020;7.642;2023-02-13T02:36:47;9.50;;;5.77;;
16506;SDS011;8366;51.020;7.642;2023-02-13T02:39:23;8.13;;;5.70;;
16506;SDS011;8366;51.020;7.642;2023-02-13T02:41:57;9.07;;;5.07;;
16506;SDS011;8366;51.020;7.642;2023-02-13T02:44:30;7.80;;;5.53;;
16506;SDS011;8366;51.020;7.642;2023-02-13T02:47:04;8.03;;;5.40;;
16506;SDS011;8366;51.020;7.642;2023-02-13T02:49:54;7.93;;;5.17;;
16506;SDS011;8366;51.020;7.642;2023-02-13T02:52:27;8.47;;;5.13;;
16506;SDS011;8366;51.020;7.642;2023-02-13T02:54:59;8.33;;;4.80;;
16506;SDS011;8366;51.020;7.642;2023-02-13T02:57:32;8.13;;;5.10;;
16506;SDS011;8366;51.020;7.642;2023-02-13T03:00:16;7.37;;;4.80;;
16506;SDS011;8366;51.020;7.642;2023-02-13T03:03:03;8.27;;;4.90;;
16506;SDS011;8366;51.020;7.642;2023-02-13T03:05:48;7.67;;;4.87;;
16506;SDS011;8366;51.020;7.642;2023-02-13T03:08:33;9.13;;;5.57;;
16506;SDS011;8366;51.020;7.642;2023-02-13T03:11:17;8.23;;;5.37;;
16506;SDS011;8366;51.020;7.642;2023-02-13T03:14:01;7.20;;;4.73;;
16506;SDS011;8366;51.020;7.642;2023-02-13T03:16:29;7.20;;;5.03;;
16506;SDS011;8366;51.020;7.642;2023-02-13T03:19:16;7.93;;;5.37;;
16506;SDS011;8366;51.020;7.642;2023-02-13T03:22:06;7.10;;;5.00;;
16506;SDS011;8366;51.020;7.642;2023-02-13T03:24:49;8.73;;;5.53;;
16506;SDS011;8366;51.020;7.642;2023-02-13T03:27:22;8.07;;;5.30;;
16506;SDS011;8366;51.020;7.642;2023-02-13T03:30:11;8.10;;;5.47;;
16506;SDS011;8366;51.020;7.642;2023-02-13T03:32:42;8.33;;;5.20;;
16506;SDS011;8366;51.020;7.642;2023-02-13T03:35:18;9.30;;;5.60;;
16506;SDS011;8366;51.020;7.642;2023-02-13T03:38:07;8.67;;;5.70;;
16506;SDS011;8366;51.020;7.642;2023-02-13T03:40:39;7.70;;;5.10;;
16506;SDS011;8366;51.020;7.642;2023-02-13T03:43:31;8.97;;;5.43;;
16506;SDS011;8366;51.020;7.642;2023-02-13T03:46:01;9.27;;;6.03;;
16506;SDS011;8366;51.020;7.642;2023-02-13T03:48:28;9.07;;;5.90;;
16506;SDS011;8366;51.020;7.642;2023-02-13T03:51:17;7.13;;;5.00;;
16506;SDS011;8366;51.020;7.642;2023-02-13T03:53:48;8.97;;;5.60;;
16506;SDS011;8366;51.020;7.642;2023-02-13T03:56:17;8.03;;;5.60;;
16506;SDS011;8366;51.020;7.642;2023-02-13T03:59:02;9.37;;;5.80;;
16506;SDS011;8366;51.020;7.642;2023-02-13T04:01:52;8.53;;;5.50;;
16506;SDS011;8366;51.020;7.642;2023-02-13T04:04:24;7.50;;;5.07;;
16506;SDS011;8366;51.020;7.642;2023-02-13T04:06:58;9.10;;;5.13;;
16506;SDS011;8366;51.020;7.642;2023-02-13T04:09:26;8.83;;;5.70;;
16506;SDS011;8366;51.020;7.642;2023-02-13T04:11:55;8.03;;;5.10;;
16506;SDS011;8366;51.020;7.642;2023-02-13T04:14:24;8.33;;;5.50;;
16506;SDS011;8366;51.020;7.642;2023-02-13T04:16:54;9.67;;;5.70;;
16506;SDS011;8366;51.020;7.642;2023-02-13T04:19:22;9.70;;;6.00;;
16506;SDS011;8366;51.020;7.642;2023-02-13T04:21:53;9.40;;;5.47;;
16506;SDS011;8366;51.020;7.642;2023-02-13T04:24:22;9.07;;;5.43;;
16506;SDS011;8366;51.020;7.642;2023-02-13T04:26:48;8.37;;;5.57;;
16506;SDS011;8366;51.020;7.642;2023-02-13T04:29:15;9.27;;;5.40;;
16506;SDS011;8366;51.020;7.642;2023-02-13T04:31:41;8.57;;;5.63;;
16506;SDS011;8366;51.020;7.642;2023-02-13T04:34:08;8.33;;;5.53;;
16506;SDS011;8366;51.020;7.642;2023-02-13T04:36:34;8.97;;;5.93;;
16506;SDS011;8366;51.020;7.642;2023-02-13T04:39:01;9.13;;;5.53;;
16506;SDS011;8366;51.020;7.642;2023-02-13T04:41:28;8.90;;;5.47;;
16506;SDS011;8366;51.020;7.642;2023-02-13T04:43:55;9.13;;;5.57;;
16506;SDS011;8366;51.020;7.642;2023-02-13T04:46:21;9.60;;;6.17;;
16506;SDS011;8366;51.020;7.642;2023-02-13T04:48:48;9.17;;;5.70;;
16506;SDS011;8366;51.020;7.642;2023-02-13T04:51:14;11.00;;;5.97;;
16506;SDS011;8366;51.020;7.642;2023-02-13T04:53:41;8.90;;;5.60;;
16506;SDS011;8366;51.020;7.642;2023-02-13T04:56:07;9.00;;;6.27;;
16506;SDS011;8366;51.020;7.642;2023-02-13T04:58:35;10.07;;;5.93;;
16506;SDS011;8366;51.020;7.642;2023-02-13T05:01:01;9.57;;;5.77;;
16506;SDS011;8366;51.020;7.642;2023-02-13T05:03:28;9.47;;;6.13;;
16506;SDS011;8366;51.020;7.642;2023-02-13T05:05:54;8.87;;;6.13;;
16506;SDS011;8366;51.020;7.642;2023-02-13T05:08:21;9.97;;;6.33;;
16506;SDS011;8366;51.020;7.642;2023-02-13T05:10:47;9.53;;;5.63;;
16506;SDS011;8366;51.020;7.642;2023-02-13T05:13:14;10.60;;;6.20;;
16506;SDS011;8366;51.020;7.642;2023-02-13T05:15:42;9.30;;;5.77;;
16506;SDS011;8366;51.020;7.642;2023-02-13T05:18:08;7.30;;;5.37;;
16506;SDS011;8366;51.020;7.642;2023-02-13T05:20:34;10.13;;;6.17;;
16506;SDS011;8366;51.020;7.642;2023-02-13T05:23:01;8.80;;;5.70;;
16506;SDS011;8366;51.020;7.642;2023-02-13T05:25:45;9.40;;;5.60;;
16506;SDS011;8366;51.020;7.642;2023-02-13T05:28:11;10.27;;;6.27;;
16506;SDS011;8366;51.020;7.642;2023-02-13T05:30:53;9.57;;;6.10;;
16506;SDS011;8366;51.020;7.642;2023-02-13T05:33:19;8.67;;;5.80;;
16506;SDS011;8366;51.020;7.642;2023-02-13T05:35:46;8.20;;;5.23;;
16506;SDS011;8366;51.020;7.642;2023-02-13T05:38:12;9.60;;;5.77;;
16506;SDS011;8366;51.020;7.642;2023-02-13T05:40:39;8.93;;;5.47;;
16506;SDS011;8366;51.020;7.642;2023-02-13T05:43:05;9.87;;;6.03;;
16506;SDS011;8366;51.020;7.642;2023-02-13T05:45:32;9.33;;;5.83;;
16506;SDS011;8366;51.020;7.642;2023-02-13T05:47:59;8.63;;;5.70;;
16506;SDS011;8366;51.020;7.642;2023-02-13T05:50:26;8.20;;;5.67;;
16506;SDS011;8366;51.020;7.642;2023-02-13T05:52:52;9.07;;;5.93;;
16506;SDS011;8366;51.020;7.642;2023-02-13T05:55:19;9.53;;;6.00;;
16506;SDS011;8366;51.020;7.642;2023-02-13T05:57:45;8.33;;;5.33;;
16506;SDS011;8366;51.020;7.642;2023-02-13T06:00:12;9.33;;;6.03;;
16506;SDS011;8366;51.020;7.642;2023-02-13T06:02:39;10.60;;;6.00;;
16506;SDS011;8366;51.020;7.642;2023-02-13T06:05:07;9.47;;;6.10;;
16506;SDS011;8366;51.020;7.642;2023-02-13T06:07:33;10.10;;;6.20;;
16506;SDS011;8366;51.020;7.642;2023-02-13T06:10:00;10.57;;;6.20;;
16506;SDS011;8366;51.020;7.642;2023-02-13T06:12:26;10.63;;;6.50;;
16506;SDS011;8366;51.020;7.642;2023-02-13T06:14:53;10.80;;;7.00;;
16506;SDS011;8366;51.020;7.642;2023-02-13T06:17:19;9.80;;;6.20;;
16506;SDS011;8366;51.020;7.642;2023-02-13T06:19:46;9.40;;;6.20;;
16506;SDS011;8366;51.020;7.642;2023-02-13T06:22:13;10.20;;;6.37;;
16506;SDS011;8366;51.020;7.642;2023-02-13T06:24:40;9.83;;;6.03;;
16506;SDS011;8366;51.020;7.642;2023-02-13T06:27:06;10.83;;;7.03;;
16506;SDS011;8366;51.020;7.642;2023-02-13T06:29:33;10.53;;;7.43;;
16506;SDS011;8366;51.020;7.642;2023-02-13T06:31:59;10.87;;;6.67;;
16506;SDS011;8366;51.020;7.642;2023-02-13T06:34:25;9.17;;;6.37;;
16506;SDS011;8366;51.020;7.642;2023-02-13T06:36:52;9.23;;;5.97;;
16506;SDS011;8366;51.020;7.642;2023-02-13T06:39:20;11.67;;;7.37;;
16506;SDS011;8366;51.020;7.642;2023-02-13T06:41:46;10.70;;;7.70;;
16506;SDS011;8366;51.020;7.642;2023-02-13T06:44:13;10.60;;;7.13;;
16506;SDS011;8366;51.020;7.642;2023-02-13T06:46:39;11.73;;;7.40;;
16506;SDS011;8366;51.020;7.642;2023-02-13T06:49:05;13.53;;;7.30;;
16506;SDS011;8366;51.020;7.642;2023-02-13T06:51:32;11.73;;;7.47;;
16506;SDS011;8366;51.020;7.642;2023-02-13T06:53:58;12.27;;;8.27;;
16506;SDS011;8366;51.020;7.642;2023-02-13T06:56:26;12.13;;;8.00;;
16506;SDS011;8366;51.020;7.642;2023-02-13T06:58:53;11.17;;;8.20;;
16506;SDS011;8366;51.020;7.642;2023-02-13T07:01:19;13.43;;;8.40;;
16506;SDS011;8366;51.020;7.642;2023-02-13T07:03:46;12.23;;;7.73;;
16506;SDS011;8366;51.020;7.642;2023-02-13T07:06:15;12.27;;;7.33;;
16506;SDS011;8366;51.020;7.642;2023-02-13T07:08:42;12.47;;;7.80;;
16506;SDS011;8366;51.020;7.642;2023-02-13T07:11:15;12.57;;;7.60;;
16506;SDS011;8366;51.020;7.642;2023-02-13T07:13:43;12.73;;;7.93;;
16506;SDS011;8366;51.020;7.642;2023-02-13T07:16:10;11.87;;;7.70;;
16506;SDS011;8366;51.020;7.642;2023-02-13T07:18:36;15.33;;;8.53;;
16506;SDS011;8366;51.020;7.642;2023-02-13T07:21:02;13.67;;;8.23;;
16506;SDS011;8366;51.020;7.642;2023-02-13T07:23:29;13.87;;;9.13;;
16506;SDS011;8366;51.020;7.642;2023-02-13T07:25:57;13.43;;;8.73;;
16506;SDS011;8366;51.020;7.642;2023-02-13T07:28:24;13.53;;;7.97;;
16506;SDS011;8366;51.020;7.642;2023-02-13T07:30:52;13.67;;;8.10;;
16506;SDS011;8366;51.020;7.642;2023-02-13T07:33:18;12.07;;;8.20;;
16506;SDS011;8366;51.020;7.642;2023-02-13T07:35:45;14.10;;;8.20;;
16506;SDS011;8366;51.020;7.642;2023-02-13T07:38:12;15.50;;;8.63;;
16506;SDS011;8366;51.020;7.642;2023-02-13T07:40:38;12.73;;;8.53;;
16506;SDS011;8366;51.020;7.642;2023-02-13T07:43:05;15.83;;;9.67;;
16506;SDS011;8366;51.020;7.642;2023-02-13T07:45:31;14.27;;;8.47;;
16506;SDS011;8366;51.020;7.642;2023-02-13T07:47:59;18.50;;;10.57;;
16506;SDS011;8366;51.020;7.642;2023-02-13T07:50:25;13.93;;;8.40;;
16506;SDS011;8366;51.020;7.642;2023-02-13T07:52:52;17.07;;;9.27;;
16506;SDS011;8366;51.020;7.642;2023-02-13T07:55:19;16.37;;;9.87;;
16506;SDS011;8366;51.020;7.642;2023-02-13T07:57:46;18.00;;;10.80;;
16506;SDS011;8366;51.020;7.642;2023-02-13T08:00:13;18.80;;;10.63;;
16506;SDS011;8366;51.020;7.642;2023-02-13T08:02:40;17.10;;;10.80;;
16506;SDS011;8366;51.020;7.642;2023-02-13T08:05:08;17.20;;;9.67;;
16506;SDS011;8366;51.020;7.642;2023-02-13T08:07:35;17.73;;;9.63;;
16506;SDS011;8366;51.020;7.642;2023-02-13T08:10:02;15.37;;;9.73;;
16506;SDS011;8366;51.020;7.642;2023-02-13T08:12:46;18.53;;;10.17;;
16506;SDS011;8366;51.020;7.642;2023-02-13T08:15:13;15.87;;;9.80;;
16506;SDS011;8366;51.020;7.642;2023-02-13T08:17:40;14.70;;;9.03;;
16506;SDS011;8366;51.020;7.642;2023-02-13T08:20:07;15.77;;;9.40;;
16506;SDS011;8366;51.020;7.642;2023-02-13T08:22:36;15.10;;;9.60;;
16506;SDS011;8366;51.020;7.642;2023-02-13T08:25:03;13.30;;;8.73;;
16506;SDS011;8366;51.020;7.642;2023-02-13T08:27:31;12.47;;;8.20;;
16506;SDS011;8366;51.020;7.642;2023-02-13T08:29:57;12.73;;;8.67;;
16506;SDS011;8366;51.020;7.642;2023-02-13T08:32:25;15.00;;;8.83;;
16506;SDS011;8366;51.020;7.642;2023-02-13T08:34:52;12.53;;;8.27;;
16506;SDS011;8366;51.020;7.642;2023-02-13T08:37:20;12.33;;;7.93;;
16506;SDS011;8366;51.020;7.642;2023-02-13T08:39:46;12.93;;;8.53;;
16506;SDS011;8366;51.020;7.642;2023-02-13T08:42:13;14.17;;;9.23;;
16506;SDS011;8366;51.020;7.642;2023-02-13T08:44:39;11.57;;;7.80;;
16506;SDS011;8366;51.020;7.642;2023-02-13T08:47:06;14.70;;;8.97;;
16506;SDS011;8366;51.020;7.642;2023-02-13T08:49:33;12.63;;;8.37;;
16506;SDS011;8366;51.020;7.642;2023-02-13T08:52:00;13.47;;;8.43;;
16506;SDS011;8366;51.020;7.642;2023-02-13T08:54:28;13.90;;;8.27;;
16506;SDS011;8366;51.020;7.642;2023-02-13T08:56:55;13.40;;;7.83;;
16506;SDS011;8366;51.020;7.642;2023-02-13T08:59:22;12.40;;;8.10;;
16506;SDS011;8366;51.020;7.642;2023-02-13T09:01:48;14.93;;;8.60;;
16506;SDS011;8366;51.020;7.642;2023-02-13T09:04:14;13.60;;;7.90;;
16506;SDS011;8366;51.020;7.642;2023-02-13T09:06:42;11.87;;;7.97;;
16506;SDS011;8366;51.020;7.642;2023-02-13T09:09:09;11.53;;;7.43;;
16506;SDS011;8366;51.020;7.642;2023-02-13T09:11:37;12.50;;;7.60;;
16506;SDS011;8366;51.020;7.642;2023-02-13T09:14:04;10.17;;;7.17;;
16506;SDS011;8366;51.020;7.642;2023-02-13T09:16:30;10.67;;;7.20;;
16506;SDS011;8366;51.020;7.642;2023-02-13T09:18:57;14.20;;;8.03;;
16506;SDS011;8366;51.020;7.642;2023-02-13T09:21:23;11.20;;;7.43;;
16506;SDS011;8366;51.020;7.642;2023-02-13T09:23:50;11.83;;;8.00;;
16506;SDS011;8366;51.020;7.642;2023-02-13T09:26:17;11.90;;;7.07;;
16506;SDS011;8366;51.020;7.642;2023-02-13T09:28:46;13.20;;;8.03;;
16506;SDS011;8366;51.020;7.642;2023-02-13T09:31:13;10.37;;;7.33;;
16506;SDS011;8366;51.020;7.642;2023-02-13T09:33:40;11.57;;;7.47;;
16506;SDS011;8366;51.020;7.642;2023-02-13T09:36:08;10.27;;;7.00;;
16506;SDS011;8366;51.020;7.642;2023-02-13T09:38:35;9.30;;;6.73;;
16506;SDS011;8366;51.020;7.642;2023-02-13T09:41:03;9.60;;;6.53;;
16506;SDS011;8366;51.020;7.642;2023-02-13T09:43:31;11.17;;;6.93;;
16506;SDS011;8366;51.020;7.642;2023-02-13T09:46:03;9.03;;;6.30;;
16506;SDS011;8366;51.020;7.642;2023-02-13T09:48:35;9.53;;;6.43;;
16506;SDS011;8366;51.020;7.642;2023-02-13T09:51:17;9.70;;;6.60;;
16506;SDS011;8366;51.020;7.642;2023-02-13T09:53:46;10.53;;;6.90;;
16506;SDS011;8366;51.020;7.642;2023-02-13T09:56:19;9.87;;;6.63;;
16506;SDS011;8366;51.020;7.642;2023-02-13T09:58:48;10.57;;;6.53;;
16506;SDS011;8366;51.020;7.642;2023-02-13T10:01:23;10.90;;;6.37;;
16506;SDS011;8366;51.020;7.642;2023-02-13T10:04:06;8.57;;;5.90;;
16506;SDS011;8366;51.020;7.642;2023-02-13T10:06:42;9.80;;;5.70;;
16506;SDS011;8366;51.020;7.642;2023-02-13T10:09:16;8.70;;;5.67;;
16506;SDS011;8366;51.020;7.642;2023-02-13T10:12:00;8.40;;;5.67;;
16506;SDS011;8366;51.020;7.642;2023-02-13T10:14:35;10.07;;;5.70;;
16506;SDS011;8366;51.020;7.642;2023-02-13T10:17:06;9.03;;;5.80;;
16506;SDS011;8366;51.020;7.642;2023-02-13T10:19:34;8.80;;;5.80;;
16506;SDS011;8366;51.020;7.642;2023-02-13T10:22:06;7.97;;;6.03;;
16506;SDS011;8366;51.020;7.642;2023-02-13T10:24:36;8.13;;;5.77;;
16506;SDS011;8366;51.020;7.642;2023-02-13T10:27:15;7.83;;;5.30;;
16506;SDS011;8366;51.020;7.642;2023-02-13T10:29:44;7.83;;;5.30;;
16506;SDS011;8366;51.020;7.642;2023-02-13T10:32:38;7.90;;;5.63;;
16506;SDS011;8366;51.020;7.642;2023-02-13T10:35:15;7.63;;;4.93;;
16506;SDS011;8366;51.020;7.642;2023-02-13T10:37:44;9.13;;;4.90;;
16506;SDS011;8366;51.020;7.642;2023-02-13T10:40:15;8.87;;;4.67;;
16506;SDS011;8366;51.020;7.642;2023-02-13T10:42:43;8.03;;;5.10;;
16506;SDS011;8366;51.020;7.642;2023-02-13T10:45:17;7.37;;;4.97;;
16506;SDS011;8366;51.020;7.642;2023-02-13T10:47:53;7.67;;;4.60;;
16506;SDS011;8366;51.020;7.642;2023-02-13T10:50:25;8.87;;;4.77;;
16506;SDS011;8366;51.020;7.642;2023-02-13T10:52:59;6.17;;;4.03;;
16506;SDS011;8366;51.020;7.642;2023-02-13T10:55:35;5.40;;;4.10;;
16506;SDS011;8366;51.020;7.642;2023-02-13T10:58:14;6.80;;;4.70;;
16506;SDS011;8366;51.020;7.642;2023-02-13T11:00:45;6.73;;;4.77;;
16506;SDS011;8366;51.020;7.642;2023-02-13T11:03:17;7.53;;;4.23;;
16506;SDS011;8366;51.020;7.642;2023-02-13T11:05:45;6.40;;;4.20;;
16506;SDS011;8366;51.020;7.642;2023-02-13T11:08:15;6.80;;;4.80;;
16506;SDS011;8366;51.020;7.642;2023-02-13T11:10:42;5.97;;;4.50;;
16506;SDS011;8366;51.020;7.642;2023-02-13T11:13:13;7.87;;;4.50;;
16506;SDS011;8366;51.020;7.642;2023-02-13T11:15:41;6.20;;;4.53;;
16506;SDS011;8366;51.020;7.642;2023-02-13T11:18:11;6.83;;;4.50;;
16506;SDS011;8366;51.020;7.642;2023-02-13T11:20:41;7.13;;;4.60;;
16506;SDS011;8366;51.020;7.642;2023-02-13T11:25:59;5.40;;;4.00;;
16506;SDS011;8366;51.020;7.642;2023-02-13T11:28:27;6.33;;;3.97;;
16506;SDS011;8366;51.020;7.642;2023-02-13T11:31:01;6.20;;;3.87;;
16506;SDS011;8366;51.020;7.642;2023-02-13T11:33:36;5.60;;;3.90;;
16506;SDS011;8366;51.020;7.642;2023-02-13T11:36:05;6.40;;;4.50;;
16506;SDS011;8366;51.020;7.642;2023-02-13T11:38:34;5.47;;;3.90;;
16506;SDS011;8366;51.020;7.642;2023-02-13T11:41:04;5.80;;;3.73;;
16506;SDS011;8366;51.020;7.642;2023-02-13T11:43:33;6.13;;;4.47;;
16506;SDS011;8366;51.020;7.642;2023-02-13T11:46:02;6.27;;;3.90;;
16506;SDS011;8366;51.020;7.642;2023-02-13T11:48:30;5.97;;;3.90;;
16506;SDS011;8366;51.020;7.642;2023-02-13T11:50:57;5.03;;;3.43;;
16506;SDS011;8366;51.020;7.642;2023-02-13T11:53:26;5.97;;;3.20;;
16506;SDS011;8366;51.020;7.642;2023-02-13T11:56:00;7.13;;;3.70;;
16506;SDS011;8366;51.020;7.642;2023-02-13T11:58:29;6.10;;;3.63;;
16506;SDS011;8366;51.020;7.642;2023-02-13T12:01:06;5.23;;;3.60;;
16506;SDS011;8366;51.020;7.642;2023-02-13T12:03:34;5.67;;;3.50;;
16506;SDS011;8366;51.020;7.642;2023-02-13T12:06:04;5.63;;;3.63;;
16506;SDS011;8366;51.020;7.642;2023-02-13T12:08:34;5.07;;;3.13;;
16506;SDS011;8366;51.020;7.642;2023-02-13T12:11:03;4.43;;;3.23;;
16506;SDS011;8366;51.020;7.642;2023-02-13T12:13:36;5.00;;;3.00;;
16506;SDS011;8366;51.020;7.642;2023-02-13T12:16:04;3.57;;;2.80;;
16506;SDS011;8366;51.020;7.642;2023-02-13T12:18:36;4.33;;;2.70;;
16506;SDS011;8366;51.020;7.642;2023-02-13T12:21:08;4.77;;;3.03;;
16506;SDS011;8366;51.020;7.642;2023-02-13T12:23:41;3.80;;;2.77;;
16506;SDS011;8366;51.020;7.642;2023-02-13T12:26:17;4.20;;;2.60;;
16506;SDS011;8366;51.020;7.642;2023-02-13T12:28:52;6.10;;;2.33;;
16506;SDS011;8366;51.020;7.642;2023-02-13T12:31:28;3.17;;;2.10;;
16506;SDS011;8366;51.020;7.642;2023-02-13T12:34:13;3.37;;;2.03;;
16506;SDS011;8366;51.020;7.642;2023-02-13T12:37:06;3.53;;;2.53;;
16506;SDS011;8366;51.020;7.642;2023-02-13T12:39:40;5.33;;;2.63;;
16506;SDS011;8366;51.020;7.642;2023-02-13T12:42:20;4.07;;;1.90;;
16506;SDS011;8366;51.020;7.642;2023-02-13T12:44:57;3.10;;;1.70;;
16506;SDS011;8366;51.020;7.642;2023-02-13T12:47:30;2.40;;;1.83;;
16506;SDS011;8366;51.020;7.642;2023-02-13T12:50:15;2.25;;;1.73;;
16506;SDS011;8366;51.020;7.642;2023-02-13T12:52:56;2.43;;;1.90;;
16506;SDS011;8366;51.020;7.642;2023-02-13T12:55:36;2.58;;;1.92;;
16506;SDS011;8366;51.020;7.642;2023-02-13T12:58:14;2.43;;;1.80;;
16506;SDS011;8366;51.020;7.642;2023-02-13T13:00:50;2.83;;;2.00;;
16506;SDS011;8366;51.020;7.642;2023-02-13T13:03:22;3.43;;;2.17;;
16506;SDS011;8366;51.020;7.642;2023-02-13T13:06:00;2.33;;;1.90;;
16506;SDS011;8366;51.020;7.642;2023-02-13T13:08:34;2.50;;;1.90;;
16506;SDS011;8366;51.020;7.642;2023-02-13T13:11:24;4.50;;;1.90;;
16506;SDS011;8366;51.020;7.642;2023-02-13T13:14:00;3.10;;;1.98;;
16506;SDS011;8366;51.020;7.642;2023-02-13T13:16:32;3.10;;;1.95;;
16506;SDS011;8366;51.020;7.642;2023-02-13T13:19:08;3.78;;;2.30;;
16506;SDS011;8366;51.020;7.642;2023-02-13T13:21:40;3.17;;;2.10;;
16506;SDS011;8366;51.020;7.642;2023-02-13T13:24:21;2.92;;;2.10;;
16506;SDS011;8366;51.020;7.642;2023-02-13T13:26:54;3.33;;;2.10;;
16506;SDS011;8366;51.020;7.642;2023-02-13T13:29:23;2.58;;;1.83;;
16506;SDS011;8366;51.020;7.642;2023-02-13T13:31:51;2.50;;;1.77;;
16506;SDS011;8366;51.020;7.642;2023-02-13T13:34:20;2.55;;;1.92;;
16506;SDS011;8366;51.020;7.642;2023-02-13T13:36:50;3.17;;;1.50;;
16506;SDS011;8366;51.020;7.642;2023-02-13T13:39:35;2.47;;;1.30;;
16506;SDS011;8366;51.020;7.642;2023-02-13T13:42:08;1.90;;;1.47;;
16506;SDS011;8366;51.020;7.642;2023-02-13T13:44:52;2.42;;;2.10;;
16506;SDS011;8366;51.020;7.642;2023-02-13T13:47:31;2.90;;;1.67;;
16506;SDS011;8366;51.020;7.642;2023-02-13T13:50:20;2.00;;;1.77;;
16506;SDS011;8366;51.020;7.642;2023-02-13T13:53:03;1.80;;;1.50;;
16506;SDS011;8366;51.020;7.642;2023-02-13T13:58:41;2.90;;;2.00;;
16506;SDS011;8366;51.020;7.642;2023-02-13T14:03:56;2.73;;;1.77;;
16506;SDS011;8366;51.020;7.642;2023-02-13T14:06:23;2.58;;;1.83;;
16506;SDS011;8366;51.020;7.642;2023-02-13T14:08:52;1.88;;;1.58;;
16506;SDS011;8366;51.020;7.642;2023-02-13T14:11:24;2.67;;;2.10;;
16506;SDS011;8366;51.020;7.642;2023-02-13T14:20:21;3.28;;;1.50;;
16506;SDS011;8366;51.020;7.642;2023-02-13T14:22:52;2.33;;;1.50;;
16506;SDS011;8366;51.020;7.642;2023-02-13T14:25:20;2.13;;;1.80;;
16506;SDS011;8366;51.020;7.642;2023-02-13T14:27:54;2.00;;;1.75;;
16506;SDS011;8366;51.020;7.642;2023-02-13T14:30:25;4.00;;;1.77;;
16506;SDS011;8366;51.020;7.642;2023-02-13T14:32:54;3.47;;;1.88;;
16506;SDS011;8366;51.020;7.642;2023-02-13T14:35:22;2.03;;;1.80;;
16506;SDS011;8366;51.020;7.642;2023-02-13T14:37:49;4.05;;;1.60;;
16506;SDS011;8366;51.020;7.642;2023-02-13T14:40:28;2.17;;;1.90;;
16506;SDS011;8366;51.020;7.642;2023-02-13T14:42:58;2.30;;;1.90;;
16506;SDS011;8366;51.020;7.642;2023-02-13T14:45:27;3.08;;;1.50;;
16506;SDS011;8366;51.020;7.642;2023-02-13T14:48:01;3.25;;;2.05;;
16506;SDS011;8366;51.020;7.642;2023-02-13T14:50:33;2.58;;;1.98;;
16506;SDS011;8366;51.020;7.642;2023-02-13T14:53:04;3.92;;;1.80;;
16506;SDS011;8366;51.020;7.642;2023-02-13T14:55:34;2.75;;;1.70;;
16506;SDS011;8366;51.020;7.642;2023-02-13T14:58:04;2.75;;;2.05;;
16506;SDS011;8366;51.020;7.642;2023-02-13T15:00:33;2.80;;;1.73;;
16506;SDS011;8366;51.020;7.642;2023-02-13T15:03:07;2.75;;;1.60;;
16506;SDS011;8366;51.020;7.642;2023-02-13T15:05:39;2.15;;;1.92;;
16506;SDS011;8366;51.020;7.642;2023-02-13T15:08:07;4.22;;;2.22;;
16506;SDS011;8366;51.020;7.642;2023-02-13T15:10:40;3.13;;;2.05;;
16506;SDS011;8366;51.020;7.642;2023-02-13T15:13:11;2.13;;;1.92;;
16506;SDS011;8366;51.020;7.642;2023-02-13T15:15:39;4.00;;;1.95;;
16506;SDS011;8366;51.020;7.642;2023-02-13T15:18:08;3.25;;;1.83;;
16506;SDS011;8366;51.020;7.642;2023-02-13T15:20:37;4.10;;;2.10;;
16506;SDS011;8366;51.020;7.642;2023-02-13T15:23:05;3.28;;;2.08;;
16506;SDS011;8366;51.020;7.642;2023-02-13T15:25:33;3.67;;;2.45;;
16506;SDS011;8366;51.020;7.642;2023-02-13T15:28:02;5.65;;;3.70;;
16506;SDS011;8366;51.020;7.642;2023-02-13T15:30:30;3.20;;;2.88;;
16506;SDS011;8366;51.020;7.642;2023-02-13T15:32:58;2.73;;;2.30;;
16506;SDS011;8366;51.020;7.642;2023-02-13T15:35:28;2.60;;;1.83;;
16506;SDS011;8366;51.020;7.642;2023-02-13T15:37:57;3.80;;;2.03;;